Time;durP1;ratioP1;P1;durP2;ratioP2;P2;SDS_P1;SDS_P2;PMS_P1;PMS_P2;Temp;Humidity;BMP_temperature;BMP_pressure;BME280_temperature;BME280_humidity;BME280_pressure;Samples;Min_cycle;Max_cycle;Signal;HPM_P1;HPM_P2
2021/04/29 00:00:44;;;;;;;13.30;6.85;;;;;;;9.36;66.61;99474.88;5078803;28;20393;-78
2021/04/29 00:03:10;;;;;;;11.15;6.00;;;;;;;9.34;65.38;99482.72;5077252;28;20036;-78
2021/04/29 00:05:36;;;;;;;13.32;6.65;;;;;;;9.28;67.86;99489.81;5077221;28;20476;-78
2021/04/29 00:08:01;;;;;;;16.58;7.55;;;;;;;9.15;68.86;99495.34;5076810;28;20032;-78
2021/04/29 00:10:31;;;;;;;14.30;7.25;;;;;;;9.12;71.58;99492.03;5059536;28;20021;-78
2021/04/29 00:12:57;;;;;;;12.82;7.32;;;;;;;9.04;73.32;99499.97;5076818;28;20021;-78
2021/04/29 00:15:22;;;;;;;12.38;7.47;;;;;;;8.90;75.17;99497.81;5078413;28;20016;-78
2021/04/29 00:17:47;;;;;;;15.13;7.38;;;;;;;8.85;74.44;99504.00;5077332;28;20032;-78
2021/04/29 00:20:16;;;;;;;22.83;7.15;;;;;;;8.63;76.51;99498.56;5075443;28;20052;-78
2021/04/29 00:22:41;;;;;;;13.68;7.20;;;;;;;8.65;78.23;99497.66;5076304;28;20059;-78
2021/04/29 00:25:07;;;;;;;14.43;6.88;;;;;;;8.48;77.04;99500.69;5074607;28;20052;-78
2021/04/29 00:27:32;;;;;;;12.02;7.00;;;;;;;8.43;75.92;99493.94;5074436;28;20027;-78
2021/04/29 00:29:58;;;;;;;15.32;7.80;;;;;;;8.38;80.64;99486.31;5074424;28;20115;-78
2021/04/29 00:32:23;;;;;;;19.25;7.25;;;;;;;8.18;81.95;99481.63;5075750;28;20024;-78
2021/04/29 00:34:49;;;;;;;15.80;8.50;;;;;;;7.99;82.89;99480.41;5074389;28;20111;-78
2021/04/29 00:37:14;;;;;;;17.08;7.97;;;;;;;7.95;85.37;99486.53;5075467;28;20032;-78
2021/04/29 00:39:39;;;;;;;13.07;8.10;;;;;;;7.91;88.37;99483.16;5074328;28;20017;-78
2021/04/29 00:42:05;;;;;;;17.05;8.32;;;;;;;7.74;91.72;99478.41;5075907;28;20559;-78
2021/04/29 00:44:30;;;;;;;16.60;8.32;;;;;;;7.59;93.76;99474.47;5076367;28;20020;-78
2021/04/29 00:46:57;;;;;;;17.05;8.85;;;;;;;7.48;95.46;99476.47;5076512;28;20400;-78
2021/04/29 00:49:23;;;;;;;13.60;8.35;;;;;;;7.35;96.63;99465.56;5074181;28;20059;-78
2021/04/29 00:51:48;;;;;;;15.95;9.10;;;;;;;7.25;97.87;99468.38;5074180;28;20016;-78
2021/04/29 00:54:13;;;;;;;14.73;8.88;;;;;;;7.17;99.37;99462.53;5075319;28;20033;-77
2021/04/29 00:56:38;;;;;;;15.75;8.85;;;;;;;7.17;98.17;99452.22;5075416;28;20028;-77
2021/04/29 00:59:04;;;;;;;15.63;9.23;;;;;;;7.17;96.29;99437.59;5073920;28;20021;-77
2021/04/29 01:01:30;;;;;;;19.88;9.32;;;;;;;7.13;97.75;99433.41;5075392;28;20043;-77
2021/04/29 01:04:03;;;;;;;16.48;10.00;;;;;;;7.10;98.07;99416.25;5073859;28;20503;-77
2021/04/29 01:06:36;;;;;;;19.58;10.88;;;;;;;7.06;100.00;99413.81;5074074;28;20538;-77
2021/04/29 01:09:17;;;;;;;27.45;15.05;;;;;;;7.02;100.00;99407.00;5074979;28;20037;-77
2021/04/29 01:11:47;;;;;;;34.42;17.05;;;;;;;7.01;100.00;99392.44;5057051;28;20024;-77
2021/04/29 01:14:15;;;;;;;18.17;11.50;;;;;;;7.04;100.00;99388.03;5057202;28;20056;-76
2021/04/29 01:16:40;;;;;;;17.65;10.30;;;;;;;7.02;100.00;99395.00;5074708;28;20031;-76
2021/04/29 01:19:10;;;;;;;18.83;11.10;;;;;;;7.07;100.00;99389.72;5056885;28;20028;-76
2021/04/29 01:21:36;;;;;;;17.38;11.48;;;;;;;7.11;100.00;99387.03;5074698;28;20107;-76
2021/04/29 01:24:16;;;;;;;22.33;11.65;;;;;;;7.02;100.00;99384.69;5056837;28;20021;-76
2021/04/29 01:26:52;;;;;;;18.30;11.90;;;;;;;6.96;100.00;99389.97;5074693;28;20020;-76
2021/04/29 01:29:26;;;;;;;16.40;10.25;;;;;;;6.89;100.00;99380.66;5056629;28;20500;-76
2021/04/29 01:31:53;;;;;;;;;;;;;;;6.89;100.00;99380.66;5075017;28;20028;-77
2021/04/29 01:34:20;;;;;;;20.42;11.60;;;;;;;6.76;100.00;99382.66;5056591;28;19961;-77
2021/04/29 01:36:48;;;;;;;21.45;12.27;;;;;;;6.80;100.00;99386.00;5056509;28;20115;-77
2021/04/29 01:39:16;;;;;;;18.58;13.18;;;;;;;6.92;100.00;99390.91;5056581;28;20028;-76
2021/04/29 01:41:45;;;;;;;21.35;13.02;;;;;;;6.86;100.00;99386.72;5074320;28;20473;-76
2021/04/29 01:44:12;;;;;;;19.42;11.00;;;;;;;6.83;100.00;99386.78;5074264;28;20082;-76
2021/04/29 01:46:38;;;;;;;18.75;10.98;;;;;;;6.80;100.00;99373.97;5074355;28;20025;-76
2021/04/29 01:49:05;;;;;;;18.23;7.50;;;;;;;6.72;100.00;99369.88;5074097;28;20042;-76
2021/04/29 01:51:31;;;;;;;16.60;9.52;;;;;;;6.73;100.00;99369.84;5072865;28;20078;-76
2021/04/29 01:53:59;;;;;;;20.00;10.75;;;;;;;6.78;100.00;99362.03;5074081;28;20036;-76
2021/04/29 01:56:25;;;;;;;18.38;11.23;;;;;;;6.73;100.00;99353.53;5056055;28;20020;-76
2021/04/29 01:58:50;;;;;;;15.48;11.27;;;;;;;6.72;100.00;99351.84;5056091;28;20020;-76
2021/04/29 02:01:15;;;;;;;17.25;10.68;;;;;;;6.77;100.00;99342.28;5073934;28;20021;-76
2021/04/29 02:03:41;;;;;;;18.42;10.45;;;;;;;6.72;100.00;99344.97;5074290;28;20419;-76
2021/04/29 02:06:06;;;;;;;16.98;10.60;;;;;;;6.66;100.00;99342.53;5073897;28;20066;-77
2021/04/29 02:08:32;;;;;;;19.40;9.82;;;;;;;6.71;100.00;99339.84;5055896;28;20121;-77
2021/04/29 02:10:59;;;;;;;15.85;10.73;;;;;;;6.65;100.00;99346.84;5074091;28;20388;-77
2021/04/29 02:13:28;;;;;;;20.85;10.23;;;;;;;6.65;100.00;99340.81;5073732;28;20032;-77
2021/04/29 02:15:57;;;;;;;17.08;9.82;;;;;;;6.59;100.00;99341.81;5073851;28;20090;-77
2021/04/29 02:18:23;;;;;;;18.42;11.05;;;;;;;6.64;100.00;99337.38;5096879;22;20529;-77
2021/04/29 02:20:50;;;;;;;19.27;10.02;;;;;;;6.60;100.00;99338.34;5073713;28;20550;-77
2021/04/29 02:23:23;;;;;;;15.23;10.18;;;;;;;6.61;100.00;99347.75;5073690;28;20032;-77
2021/04/29 02:25:53;;;;;;;17.08;9.57;;;;;;;6.54;100.00;99341.06;5073668;28;20028;-77
2021/04/29 02:28:19;;;;;;;15.20;9.48;;;;;;;6.53;100.00;99329.06;5073420;28;20060;-77
2021/04/29 02:30:48;;;;;;;14.13;8.95;;;;;;;6.57;100.00;99333.25;5073652;28;20028;-77
2021/04/29 02:33:15;;;;;;;17.17;9.68;;;;;;;6.55;100.00;99329.03;5089312;28;20031;-77
2021/04/29 02:35:41;;;;;;;18.15;10.05;;;;;;;6.57;100.00;99320.38;5073575;28;20028;-77
2021/04/29 02:38:08;;;;;;;18.83;9.88;;;;;;;6.51;100.00;99324.81;5073326;28;20540;-77
2021/04/29 02:40:33;;;;;;;13.63;9.30;;;;;;;6.47;100.00;99321.47;5073489;28;20111;-77
2021/04/29 02:42:59;;;;;;;15.63;9.70;;;;;;;6.53;100.00;99326.50;5088981;28;20071;-77
2021/04/29 02:45:24;;;;;;;18.52;9.30;;;;;;;6.56;100.00;99315.25;5073342;28;20484;-77
2021/04/29 02:47:51;;;;;;;17.52;9.70;;;;;;;6.54;100.00;99322.19;5071943;28;20024;-77
2021/04/29 02:50:22;;;;;;;13.85;8.25;;;;;;;6.59;100.00;99313.47;5089052;28;20032;-77
2021/04/29 02:52:51;;;;;;;17.00;9.32;;;;;;;6.54;100.00;99322.19;5072047;28;20024;-77
2021/04/29 02:55:17;;;;;;;16.45;9.85;;;;;;;6.52;100.00;99319.63;5073204;28;20021;-77
2021/04/29 02:57:43;;;;;;;15.38;10.07;;;;;;;6.55;100.00;99319.56;5073197;28;20029;-77
2021/04/29 03:00:11;;;;;;;16.25;9.68;;;;;;;6.53;100.00;99321.34;5071989;28;20115;-77
2021/04/29 03:02:39;;;;;;;19.10;8.55;;;;;;;6.55;100.00;99316.13;5088755;28;20025;-77
2021/04/29 03:05:06;;;;;;;17.45;9.20;;;;;;;6.52;100.00;99313.63;5073254;28;20026;-77
2021/04/29 03:07:31;;;;;;;14.27;8.93;;;;;;;6.52;100.00;99309.31;5073053;28;20389;-77
2021/04/29 03:09:56;;;;;;;15.98;9.27;;;;;;;6.47;100.00;99315.47;5088564;28;20020;-77
2021/04/29 03:12:21;;;;;;;14.88;9.70;;;;;;;6.47;100.00;99316.31;5088603;28;20067;-77
2021/04/29 03:14:47;;;;;;;15.68;10.05;;;;;;;6.50;100.00;99321.41;5088671;28;20032;-77
2021/04/29 03:17:12;;;;;;;17.45;9.13;;;;;;;6.50;100.00;99312.84;5071525;28;20035;-77
2021/04/29 03:19:37;;;;;;;15.50;9.63;;;;;;;6.57;100.00;99307.50;5088801;28;20017;-77
2021/04/29 03:22:02;;;;;;;18.27;9.18;;;;;;;6.57;100.00;99310.06;5088765;28;20434;-77
2021/04/29 03:24:28;;;;;;;14.98;9.88;;;;;;;6.56;100.00;99317.81;5073380;28;20032;-77
2021/04/29 03:26:53;;;;;;;14.68;9.98;;;;;;;6.58;100.00;99308.34;5088330;28;20028;-77
2021/04/29 03:29:18;;;;;;;15.07;10.20;;;;;;;6.58;100.00;99298.88;5090641;28;20028;-77
2021/04/29 03:31:43;;;;;;;18.73;9.95;;;;;;;6.57;100.00;99310.06;5077018;28;20028;-77
2021/04/29 03:34:09;;;;;;;20.10;10.45;;;;;;;6.54;100.00;99299.84;5092548;28;20046;-77
2021/04/29 03:36:34;;;;;;;16.15;9.30;;;;;;;6.58;100.00;99308.34;5075675;28;20028;-77
2021/04/29 03:38:59;;;;;;;14.27;9.68;;;;;;;6.56;100.00;99307.53;5076741;28;20026;-77
2021/04/29 03:41:25;;;;;;;15.25;9.40;;;;;;;6.57;100.00;99304.94;5076693;28;20027;-77
2021/04/29 03:43:51;;;;;;;18.25;9.85;;;;;;;6.60;100.00;99306.59;5092342;28;20028;-77
2021/04/29 03:46:16;;;;;;;19.10;9.18;;;;;;;6.60;100.00;99307.44;5092294;28;20035;-77
2021/04/29 03:48:41;;;;;;;14.63;8.90;;;;;;;6.60;100.00;99307.44;5076526;28;20099;-77
2021/04/29 03:51:07;;;;;;;12.82;8.35;;;;;;;6.59;100.00;99305.75;5076580;28;20024;-77
2021/04/29 03:53:32;;;;;;;15.05;8.95;;;;;;;6.62;100.00;99313.41;5092150;28;20028;-77
2021/04/29 03:55:58;;;;;;;15.50;9.35;;;;;;;6.57;100.00;99307.50;5076666;28;20389;-77
2021/04/29 03:58:23;;;;;;;16.30;10.43;;;;;;;6.55;100.00;99304.09;5091984;28;20024;-77
2021/04/29 04:00:49;;;;;;;15.43;9.05;;;;;;;6.57;100.00;99306.66;5075268;28;20562;-77
2021/04/29 04:03:14;;;;;;;16.60;9.13;;;;;;;6.54;100.00;99305.00;5077062;28;20490;-77
2021/04/29 04:05:39;;;;;;;17.20;9.88;;;;;;;6.51;100.00;99302.47;5092220;28;20518;-77
2021/04/29 04:08:05;;;;;;;16.50;10.43;;;;;;;6.48;100.00;99307.69;5091722;28;20472;-77
2021/04/29 04:10:30;;;;;;;16.30;10.05;;;;;;;6.47;100.00;99303.44;5075032;28;20070;-77
2021/04/29 04:12:55;;;;;;;17.30;10.90;;;;;;;6.46;100.00;99301.72;5074996;28;20548;-77
2021/04/29 04:15:21;;;;;;;13.23;10.18;;;;;;;6.46;100.00;99301.72;5075083;28;20028;-77
2021/04/29 04:17:46;;;;;;;15.30;10.05;;;;;;;6.48;100.00;99304.28;5074640;28;20029;-77
2021/04/29 04:20:12;;;;;;;16.45;10.15;;;;;;;6.55;100.00;99300.69;5074779;28;20476;-77
2021/04/29 04:22:37;;;;;;;15.40;9.90;;;;;;;6.58;100.00;99295.47;5076037;28;20020;-77
2021/04/29 04:25:04;;;;;;;16.40;10.35;;;;;;;6.58;100.00;99303.19;5091756;28;20046;-77
2021/04/29 04:27:29;;;;;;;14.93;10.70;;;;;;;6.57;100.00;99299.78;5076060;28;20028;-77
2021/04/29 04:29:54;;;;;;;14.77;10.18;;;;;;;6.57;100.00;99298.94;5074781;28;20035;-77
2021/04/29 04:32:19;;;;;;;14.18;8.50;;;;;;;6.56;100.00;99295.50;5075830;28;20024;-77
2021/04/29 04:34:45;;;;;;;16.90;9.77;;;;;;;6.59;100.00;99292.00;5091436;28;20115;-77
2021/04/29 04:37:10;;;;;;;17.20;10.13;;;;;;;6.63;100.00;99298.78;5091392;28;20025;-77
2021/04/29 04:39:36;;;;;;;17.55;9.88;;;;;;;6.67;100.00;99292.69;5073850;28;20031;-77
2021/04/29 04:42:02;;;;;;;14.00;9.52;;;;;;;6.61;100.00;99293.66;5075258;28;20025;-77
2021/04/29 04:44:28;;;;;;;14.50;9.20;;;;;;;6.63;100.00;99291.91;5091483;28;20024;-77
2021/04/29 04:46:53;;;;;;;16.15;9.25;;;;;;;6.66;100.00;99297.00;5091133;28;20021;-77
2021/04/29 04:49:18;;;;;;;16.20;10.30;;;;;;;6.69;100.00;99296.09;5091198;28;20032;-77
2021/04/29 04:51:43;;;;;;;15.52;9.52;;;;;;;6.66;100.00;99296.16;5075676;28;20078;-77
2021/04/29 04:54:09;;;;;;;17.63;9.55;;;;;;;6.64;100.00;99309.06;5091131;28;20032;-77
2021/04/29 04:56:36;;;;;;;14.45;9.88;;;;;;;6.63;100.00;99307.38;5090903;28;20035;-77
2021/04/29 04:59:02;;;;;;;17.15;10.57;;;;;;;6.63;100.00;99309.09;5090929;28;20389;-77
2021/04/29 05:01:27;;;;;;;17.67;10.20;;;;;;;6.65;100.00;99303.03;5075311;28;20058;-77
2021/04/29 05:03:53;;;;;;;14.35;9.75;;;;;;;6.66;100.00;99304.72;5074180;28;20025;-77
2021/04/29 05:06:19;;;;;;;14.10;9.60;;;;;;;6.69;100.00;99301.22;5090936;28;20036;-77
2021/04/29 05:08:44;;;;;;;18.13;10.10;;;;;;;6.71;100.00;99311.50;5074997;28;20033;-77
2021/04/29 05:11:09;;;;;;;15.48;10.02;;;;;;;6.74;100.00;99308.84;5075142;28;20016;-77
2021/04/29 05:13:34;;;;;;;16.55;9.90;;;;;;;6.73;100.00;99310.56;5075769;28;20099;-77
2021/04/29 05:16:00;;;;;;;14.48;9.60;;;;;;;6.74;100.00;99312.25;5090692;28;20020;-77
2021/04/29 05:18:26;;;;;;;16.60;9.43;;;;;;;6.77;100.00;99308.78;5074829;28;20028;-78
2021/04/29 05:20:51;;;;;;;18.55;10.30;;;;;;;6.81;100.00;99310.41;5090682;28;20027;-78
2021/04/29 05:23:16;;;;;;;15.93;9.60;;;;;;;6.84;100.00;99308.63;5073894;28;20017;-77
2021/04/29 05:25:42;;;;;;;17.55;9.35;;;;;;;6.87;99.82;99307.69;5075316;28;20020;-78
2021/04/29 05:28:07;;;;;;;15.40;9.30;;;;;;;6.98;100.00;99313.44;5075066;28;20021;-78
2021/04/29 05:30:32;;;;;;;13.30;9.25;;;;;;;7.01;99.39;99308.19;5075085;28;20017;-77
2021/04/29 05:32:58;;;;;;;12.50;8.10;;;;;;;6.91;98.88;99307.56;5090412;28;20484;-78
2021/04/29 05:35:23;;;;;;;13.15;8.50;;;;;;;6.90;98.84;99302.47;5073804;28;20389;-78
2021/04/29 05:37:48;;;;;;;16.92;9.68;;;;;;;6.97;99.97;99304.00;5075027;28;20062;-78
2021/04/29 05:40:14;;;;;;;14.57;8.88;;;;;;;6.91;98.26;99306.72;5090467;28;20079;-78
2021/04/29 05:42:40;;;;;;;15.75;9.73;;;;;;;6.98;98.58;99307.44;5073436;28;20031;-78
2021/04/29 05:45:06;;;;;;;16.65;9.75;;;;;;;7.04;100.00;99304.72;5075149;28;20021;-78
2021/04/29 05:47:32;;;;;;;15.90;8.88;;;;;;;6.96;98.57;99304.91;5074615;28;20107;-78
2021/04/29 05:49:57;;;;;;;12.35;9.30;;;;;;;7.05;98.60;99309.84;5074795;28;20507;-77
2021/04/29 05:52:22;;;;;;;14.80;9.23;;;;;;;7.02;97.74;99309.03;5074763;28;20035;-78
2021/04/29 05:54:47;;;;;;;14.73;9.13;;;;;;;7.03;98.87;99313.34;5074840;28;20020;-77
2021/04/29 05:57:13;;;;;;;15.75;10.23;;;;;;;7.04;99.01;99302.97;5090266;28;20032;-78
2021/04/29 05:59:38;;;;;;;16.55;9.18;;;;;;;7.02;97.85;99307.34;5074730;28;20027;-78
2021/04/29 06:02:03;;;;;;;14.07;9.75;;;;;;;7.09;98.79;99303.72;5073471;28;20502;-78
2021/04/29 06:04:29;;;;;;;14.45;7.93;;;;;;;7.05;98.57;99309.84;5090037;28;20026;-77
2021/04/29 06:06:54;;;;;;;17.77;8.90;;;;;;;7.02;98.37;99307.34;5090040;28;20029;-77
2021/04/29 06:09:20;;;;;;;16.10;10.70;;;;;;;7.15;99.50;99311.31;5072973;28;20107;-77
2021/04/29 06:11:45;;;;;;;14.80;6.72;;;;;;;7.09;98.17;99321.75;5073169;28;20061;-77
2021/04/29 06:14:12;;;;;;;15.43;11.30;;;;;;;7.14;99.72;99319.94;5089787;28;20036;-77
2021/04/29 06:16:37;;;;;;;21.40;10.32;;;;;;;7.12;99.15;99315.69;5074270;28;20039;-77
2021/04/29 06:19:03;;;;;;;16.67;10.23;;;;;;;7.09;98.73;99316.59;5073860;28;20455;-77
2021/04/29 06:21:28;;;;;;;15.77;10.38;;;;;;;7.04;99.60;99321.00;5072588;28;20503;-77
2021/04/29 06:23:53;;;;;;;14.50;8.38;;;;;;;7.01;99.92;99318.50;5074119;28;20036;-78
2021/04/29 06:26:19;;;;;;;18.23;10.68;;;;;;;6.98;100.00;99328.91;5074198;28;20515;-78
2021/04/29 06:28:44;;;;;;;9.93;6.15;;;;;;;7.03;100.00;99327.06;5072753;28;20028;-78
2021/04/29 06:31:09;;;;;;;16.42;10.55;;;;;;;7.07;100.00;99323.53;5089863;28;20028;-78
2021/04/29 06:33:34;;;;;;;16.45;10.48;;;;;;;7.04;100.00;99327.91;5074426;28;20043;-78
2021/04/29 06:36:00;;;;;;;16.88;10.70;;;;;;;6.96;100.00;99325.53;5074869;28;20032;-78
2021/04/29 06:38:25;;;;;;;15.57;10.27;;;;;;;6.96;100.00;99329.81;5073895;28;20020;-78
2021/04/29 06:40:51;;;;;;;16.88;11.20;;;;;;;7.02;100.00;99324.50;5072991;28;20572;-78
2021/04/29 06:43:16;;;;;;;15.68;11.07;;;;;;;7.05;100.00;99327.88;5072538;28;20120;-78
2021/04/29 06:45:41;;;;;;;17.02;11.68;;;;;;;6.98;100.00;99317.75;5073872;28;20020;-79
2021/04/29 06:48:11;;;;;;;18.38;10.88;;;;;;;7.01;100.00;99322.81;5073493;28;20389;-77
2021/04/29 06:50:37;;;;;;;17.92;12.27;;;;;;;7.18;100.00;99318.13;5073928;28;20059;-79
2021/04/29 06:53:03;;;;;;;17.10;11.63;;;;;;;7.15;100.00;99324.19;5072608;28;20024;-79
2021/04/29 06:55:28;;;;;;;15.80;10.68;;;;;;;7.04;100.00;99320.19;5072746;28;20377;-79
2021/04/29 06:57:53;;;;;;;16.80;11.95;;;;;;;7.07;100.00;99333.84;5073894;28;20070;-78
2021/04/29 07:00:19;;;;;;;16.63;12.68;;;;;;;7.06;100.00;99319.25;5074160;28;20380;-78
2021/04/29 07:02:45;;;;;;;18.08;11.75;;;;;;;7.09;100.00;99318.34;5071823;28;20020;-78
2021/04/29 07:05:10;;;;;;;18.33;12.48;;;;;;;7.06;100.00;99321.84;5072043;28;20029;-78
2021/04/29 07:07:35;;;;;;;15.38;9.13;;;;;;;7.02;99.45;99316.78;5073549;28;20035;-79
2021/04/29 07:10:02;;;;;;;20.55;11.43;;;;;;;7.04;100.00;99323.59;5073294;28;20028;-78
2021/04/29 07:12:27;;;;;;;17.25;12.55;;;;;;;7.03;100.00;99311.59;5072268;28;20035;-78
2021/04/29 07:14:52;;;;;;;17.65;12.45;;;;;;;7.08;100.00;99319.22;5073544;28;20020;-77
2021/04/29 07:17:17;;;;;;;18.98;12.20;;;;;;;7.14;100.00;99307.03;5071798;28;20104;-77
2021/04/29 07:19:43;;;;;;;19.90;11.20;;;;;;;7.04;100.00;99315.88;5073216;28;20070;-78
2021/04/29 07:22:08;;;;;;;17.95;12.85;;;;;;;7.16;100.00;99301.84;5071846;28;20039;-77
2021/04/29 07:24:33;;;;;;;19.05;11.00;;;;;;;7.11;99.90;99303.66;5073187;28;20389;-77
2021/04/29 07:27:01;;;;;;;17.75;11.63;;;;;;;7.18;98.91;99304.38;5071761;28;20024;-77
2021/04/29 07:29:28;;;;;;;17.35;11.20;;;;;;;7.23;98.22;99302.53;5071849;28;20401;-78
2021/04/29 07:31:53;;;;;;;16.75;11.27;;;;;;;7.31;98.65;99298.88;5073130;28;20438;-78
2021/04/29 07:34:20;;;;;;;15.20;11.27;;;;;;;7.20;98.44;99292.28;5072367;28;20028;-78
2021/04/29 07:36:45;;;;;;;18.98;13.13;;;;;;;7.28;98.65;99300.69;5074252;28;20092;-79
2021/04/29 07:39:11;;;;;;;15.32;8.00;;;;;;;7.41;97.66;99296.91;5073410;28;20073;-77
2021/04/29 07:41:36;;;;;;;17.52;13.00;;;;;;;7.42;99.98;99295.16;5072907;28;20036;-76
2021/04/29 07:44:02;;;;;;;16.77;12.90;;;;;;;7.55;98.82;99302.56;5071698;28;20021;-76
2021/04/29 07:46:28;;;;;;;18.17;12.25;;;;;;;7.56;98.52;99298.25;5071691;28;20020;-76
2021/04/29 07:48:53;;;;;;;16.77;12.32;;;;;;;7.38;98.01;99300.41;5072836;28;20030;-77
2021/04/29 07:51:19;;;;;;;19.08;11.57;;;;;;;7.39;96.69;99298.69;5071331;28;20115;-77
2021/04/29 07:53:44;;;;;;;16.60;12.13;;;;;;;7.63;97.00;99292.03;5071349;28;20036;-76
2021/04/29 07:56:09;;;;;;;17.05;12.30;;;;;;;7.71;96.51;99284.09;5072696;28;20027;-77
2021/04/29 07:58:35;;;;;;;20.35;13.15;;;;;;;7.59;95.01;99283.53;5072577;28;20017;-76
2021/04/29 08:01:00;;;;;;;17.48;12.32;;;;;;;7.70;94.89;99285.00;5071475;28;20070;-76
2021/04/29 08:03:25;;;;;;;22.70;13.30;;;;;;;7.79;96.33;99279.56;5072976;28;20029;-76
2021/04/29 08:05:51;;;;;;;20.95;12.48;;;;;;;8.00;96.00;99285.84;5071476;28;20034;-77
2021/04/29 08:08:17;;;;;;;17.35;12.18;;;;;;;7.78;94.82;99281.28;5072705;28;20074;-76
2021/04/29 08:10:42;;;;;;;16.35;10.70;;;;;;;7.73;94.65;99284.91;5072624;28;20060;-76
2021/04/29 08:13:10;;;;;;;17.48;12.77;;;;;;;7.77;96.10;99289.94;5071581;28;20389;-77
2021/04/29 08:15:36;;;;;;;17.52;12.02;;;;;;;7.86;96.17;99288.84;5073712;28;20021;-76
2021/04/29 08:18:01;;;;;;;18.52;12.70;;;;;;;7.92;94.60;99288.66;5099185;22;20039;-79
2021/04/29 08:20:26;;;;;;;18.65;12.02;;;;;;;7.71;95.66;99291.84;5083592;28;20435;-79
2021/04/29 08:22:51;;;;;;;17.92;12.63;;;;;;;8.00;95.52;99291.84;5082812;28;20115;-79
2021/04/29 08:25:17;;;;;;;16.95;13.05;;;;;;;7.96;95.53;99284.25;5084641;28;20103;-79
2021/04/29 08:27:42;;;;;;;18.13;12.27;;;;;;;8.08;94.97;99291.66;5084411;28;20078;-80
2021/04/29 08:30:08;;;;;;;18.27;12.57;;;;;;;8.16;94.67;99294.00;5084408;28;20476;-79
2021/04/29 08:32:33;;;;;;;16.75;11.40;;;;;;;8.08;94.45;99289.91;5083287;28;20032;-79
2021/04/29 08:34:59;;;;;;;15.10;10.52;;;;;;;8.16;93.98;99292.28;5086109;28;20051;-79
2021/04/29 08:37:24;;;;;;;16.92;11.43;;;;;;;8.03;96.10;99296.94;5082605;28;20070;-78
2021/04/29 08:39:49;;;;;;;17.77;13.40;;;;;;;8.14;94.86;99299.22;5074436;28;20538;-77
2021/04/29 08:42:15;;;;;;;18.63;13.38;;;;;;;8.12;95.54;99295.00;5074395;28;20476;-77
2021/04/29 08:51:26;;;;;;;18.25;11.90;;;;;;;8.04;95.98;99297.81;5076055;28;20085;-77
2021/04/29 08:53:53;;;;;;;20.52;13.27;;;;;;;8.17;94.95;99296.56;5074502;28;20035;-77
2021/04/29 08:56:23;;;;;;;21.05;14.45;;;;;;;8.33;94.97;99304.72;5074242;28;20020;-77
2021/04/29 08:58:57;;;;;;;20.75;14.10;;;;;;;8.34;94.72;99302.97;5075330;28;20032;-77
2021/04/29 09:01:23;;;;;;;16.33;13.05;;;;;;;8.35;94.88;99302.94;5074058;28;20024;-77
2021/04/29 09:03:48;;;;;;;18.05;12.68;;;;;;;8.30;93.96;99307.38;5074240;28;20094;-77
2021/04/29 09:06:14;;;;;;;22.35;12.95;;;;;;;8.30;95.24;99304.78;5075163;28;20032;-77
2021/04/29 09:08:40;;;;;;;19.40;13.60;;;;;;;8.38;95.56;99304.59;5075029;28;20117;-77
2021/04/29 09:11:10;;;;;;;18.90;12.95;;;;;;;8.53;96.12;99307.59;5073816;28;20464;-77
2021/04/29 09:13:35;;;;;;;20.63;14.02;;;;;;;8.51;96.34;99306.78;5073821;28;20031;-77
2021/04/29 09:16:14;;;;;;;18.58;13.57;;;;;;;8.61;96.81;99306.50;5075019;28;20021;-77
2021/04/29 09:18:41;;;;;;;17.45;13.75;;;;;;;8.57;95.84;99300.59;5073499;28;20032;-77
2021/04/29 09:21:14;;;;;;;19.52;13.30;;;;;;;8.38;98.49;99310.63;5077259;28;20030;-79
2021/04/29 09:23:48;;;;;;;18.30;13.15;;;;;;;8.65;96.91;99301.22;5084290;28;20051;-79
2021/04/29 09:26:16;;;;;;;18.95;13.45;;;;;;;8.55;95.94;99304.09;5081893;28;20020;-79
2021/04/29 09:28:54;;;;;;;20.42;14.02;;;;;;;8.57;96.21;99307.50;5081490;28;20565;-79
2021/04/29 09:31:27;;;;;;;19.27;13.88;;;;;;;8.51;95.82;99309.38;5080212;28;20564;-79
2021/04/29 09:33:58;;;;;;;19.95;13.52;;;;;;;8.50;97.21;99306.84;5078565;28;20028;-79
2021/04/29 09:36:29;;;;;;;19.08;13.75;;;;;;;8.58;98.34;99306.59;5080121;28;20021;-79
2021/04/29 09:39:05;;;;;;;19.73;14.23;;;;;;;8.61;98.69;99306.50;5078640;28;20024;-79
2021/04/29 09:41:34;;;;;;;18.95;13.98;;;;;;;8.68;97.33;99303.69;5077182;28;20043;-79
2021/04/29 09:44:03;;;;;;;17.60;13.57;;;;;;;8.57;97.52;99299.75;5078654;28;20097;-79
2021/04/29 09:46:42;;;;;;;18.23;12.65;;;;;;;8.53;96.95;99310.19;5073265;28;20032;-77
2021/04/29 09:49:38;;;;;;;17.02;13.52;;;;;;;8.57;97.85;99307.50;5072987;28;20024;-77
2021/04/29 09:52:16;;;;;;;20.95;13.90;;;;;;;8.55;98.74;99296.34;5072956;28;20024;-77
2021/04/29 09:54:42;;;;;;;18.25;14.25;;;;;;;8.70;97.72;99298.47;5074208;28;20046;-77
2021/04/29 09:57:19;;;;;;;21.13;13.90;;;;;;;8.63;97.94;99299.56;5072866;28;20481;-77
2021/04/29 09:59:48;;;;;;;17.17;12.98;;;;;;;8.78;96.23;99300.84;5082824;28;20021;-80
2021/04/29 10:02:15;;;;;;;19.77;14.65;;;;;;;9.11;100.00;99298.88;5074503;28;20028;-78
2021/04/29 10:04:42;;;;;;;17.42;12.95;;;;;;;8.89;96.10;99304.75;5079767;28;20380;-78
2021/04/29 10:07:09;;;;;;;20.85;14.50;;;;;;;8.79;98.06;99299.94;5076398;28;20548;-79
2021/04/29 10:09:35;;;;;;;17.60;14.85;;;;;;;8.75;97.56;99305.19;5076323;28;20032;-78
2021/04/29 10:12:07;;;;;;;19.52;15.32;;;;;;;8.82;100.00;99297.25;5072678;28;20107;-78
2021/04/29 10:14:35;;;;;;;18.42;15.27;;;;;;;8.79;100.00;99305.94;5073820;28;20512;-78
2021/04/29 10:17:09;;;;;;;17.00;14.23;;;;;;;8.56;98.81;99306.66;5073845;28;20115;-78
2021/04/29 10:19:37;;;;;;;20.45;14.68;;;;;;;8.48;99.91;99319.78;5073665;28;20474;-78
2021/04/29 10:22:03;;;;;;;24.17;14.18;;;;;;;8.44;99.84;99307.88;5072531;28;20180;-78
2021/04/29 10:24:29;;;;;;;21.27;15.38;;;;;;;8.58;100.00;99310.03;5072553;28;20028;-78
2021/04/29 10:27:05;;;;;;;18.20;14.90;;;;;;;8.63;99.19;99300.41;5073627;28;20385;-78
2021/04/29 10:29:31;;;;;;;21.73;15.55;;;;;;;8.55;99.25;99301.53;5073755;28;20048;-78
2021/04/29 10:31:58;;;;;;;17.92;15.05;;;;;;;8.55;100.00;99301.53;5072283;28;20481;-78
2021/04/29 10:34:24;;;;;;;21.23;13.75;;;;;;;8.56;100.00;99300.63;5072261;28;20039;-78
2021/04/29 10:36:51;;;;;;;18.20;14.82;;;;;;;8.71;99.58;99295.84;5072187;28;20020;-78
2021/04/29 10:39:21;;;;;;;18.63;15.45;;;;;;;8.62;100.00;99297.84;5073392;28;20100;-77
2021/04/29 10:41:49;;;;;;;21.00;14.82;;;;;;;8.53;99.69;99291.25;5072017;28;20556;-77
2021/04/29 10:44:17;;;;;;;19.40;15.75;;;;;;;8.59;100.00;99292.78;5071994;28;20028;-77
2021/04/29 10:46:44;;;;;;;19.90;15.85;;;;;;;8.66;100.00;99294.28;5072325;28;20017;-77
2021/04/29 10:49:12;;;;;;;20.40;14.70;;;;;;;8.51;100.00;99296.44;5071804;28;20024;-77
2021/04/29 10:51:40;;;;;;;20.40;15.95;;;;;;;8.41;100.00;99304.53;5071985;28;20021;-77
2021/04/29 10:54:16;;;;;;;20.20;15.80;;;;;;;8.46;100.00;99293.13;5073179;28;20032;-77
2021/04/29 10:56:57;;;;;;;24.17;16.33;;;;;;;8.47;100.00;99302.59;5072202;28;20535;-77
2021/04/29 10:59:23;;;;;;;21.92;15.48;;;;;;;8.44;100.00;99297.53;5072972;28;20404;-77
2021/04/29 11:01:48;;;;;;;18.73;15.10;;;;;;;8.38;100.00;99296.84;5071814;28;20123;-77
2021/04/29 11:04:22;;;;;;;22.23;16.27;;;;;;;8.33;100.00;99302.13;5072995;28;20070;-77
2021/04/29 11:06:48;;;;;;;22.55;16.23;;;;;;;8.34;100.00;99300.38;5071670;28;20020;-77
2021/04/29 11:09:21;;;;;;;22.60;16.02;;;;;;;8.35;100.00;99300.34;5072937;28;20031;-77
2021/04/29 11:11:58;;;;;;;23.90;16.65;;;;;;;8.28;100.00;99299.69;5071742;28;20117;-77
2021/04/29 11:14:23;;;;;;;21.13;16.05;;;;;;;8.39;100.00;99304.56;5072980;28;20447;-77
2021/04/29 11:16:53;;;;;;;21.77;16.40;;;;;;;8.31;100.00;99303.91;5072921;28;20108;-77
2021/04/29 11:19:40;;;;;;;20.52;16.00;;;;;;;8.33;100.00;99299.53;5071600;28;20090;-77
2021/04/29 11:22:10;;;;;;;24.02;16.45;;;;;;;8.33;100.00;99302.13;5072917;28;20020;-77
2021/04/29 11:24:38;;;;;;;22.77;16.38;;;;;;;8.39;100.00;99303.72;5073275;28;20103;-77
2021/04/29 11:27:04;;;;;;;20.10;16.30;;;;;;;8.34;100.00;99306.38;5072920;28;20020;-77
2021/04/29 11:29:37;;;;;;;19.80;15.57;;;;;;;8.31;100.00;99306.47;5072684;28;20500;-77